Terminal Aerodrome Forecast
Issued by NWS Rapid City, SD

Home | Current Version | Previous Version | Graphics & Text | Print | Product List | Glossary On
Versions: 1 2 3 4 5 6 7 8 9 10 11 12 13 14 15 16 17 18 19 20 21 22 23 24
006
FTUS43 KUNR 231720
TAFRAP
TAF
KRAP 231720Z 2318/2418 VRB05KT 5SM BR OVC008
     FM232000 12011KT P6SM BKN030 BKN080
     FM232300 30015G25KT P6SM -TSRA BKN040CB
     FM240400 33015KT P6SM BKN040
     FM241200 29012KT P6SM SCT050=

USA.gov is the U.S. government's official web portal to all federal, state and local government web resources and services.